Flight Track Log - Related Links

Times and Time Zones

All times are in EDT time to prevent confusion due to time zone crossing. See the N1926A flight status page for this flight to view local times or setup timezone preferences in your user account.

Time Position Orientation Groundspeed Altitude Reporting Facility
EDT Latitude Longitude Course Direction KTS MPH feet Rate Location/Type
Tue 08:10:06 AM 32.5953 -85.8583 360° North 223 257 4,900  Level Atlanta Center
Tue 08:11:06 AM 32.6494 -85.8644 355° North 210 242 6,600 1,750 Climbing Atlanta Center
Tue 08:12:06 AM 32.7036 -85.8656 359° North 199 229 8,400 1,800 Climbing Atlanta Center
Tue 08:13:06 AM 32.7558 -85.8692 357° North 194 223 10,200 1,750 Climbing Atlanta Center
Tue 08:14:00 AM 32.8414 -85.8833 North  Level FlightAware Approximate
Tue 08:14:06 AM 32.8100 -85.8728 357° North 194 223 11,900  Level Atlanta Center
Tue 08:15:00 AM 32.9099 -85.8833 360° North  Level FlightAware Approximate
Tue 08:15:06 AM 32.8664 -85.8764 357° North 194 223 13,700  Level Atlanta Center
Tue 08:16:06 AM 32.9183 -85.8825 354° North 194 223 15,200 1,450 Climbing Atlanta Center
Tue 08:17:06 AM 32.9725 -85.8858 357° North 194 223 16,600 1,350 Climbing Atlanta Center
Tue 08:18:06 AM 33.0269 -85.8847 North 194 223 17,900 1,250 Climbing Atlanta Center
Tue 08:19:06 AM 33.0811 -85.8933 352° North 194 223 19,100 1,150 Climbing Atlanta Center
Tue 08:20:06 AM 33.1333 -85.8944 359° North 194 223 20,200 1,050 Climbing Atlanta Center
Tue 08:21:06 AM 33.1897 -85.8931 North 194 223 21,200 950 Climbing Atlanta Center
Tue 08:22:06 AM 33.2439 -85.8967 357° North 194 223 22,100 950 Climbing Atlanta Center
Tue 08:23:06 AM 33.3022 -85.8981 359° North 199 229 23,100 900 Climbing Atlanta Center
Tue 08:24:06 AM 33.3586 -85.9067 353° North 199 229 23,900 800 Climbing Atlanta Center
Tue 08:25:06 AM 33.4147 -85.9053 North 199 229 24,700 550 Climbing Atlanta Center
Tue 08:26:06 AM 33.4775 -85.9067 359° North 199 229 25,000 150 Climbing Atlanta Center
Tue 08:27:06 AM 33.5442 -85.9106 357° North 221 254 25,000  Level Atlanta Center
Tue 08:28:06 AM 33.6256 -85.9175 356° North 245 282 25,000 150 Level Atlanta Center
Tue 08:29:06 AM 33.6944 -85.9214 357° North 251 289 25,300 350 Climbing Atlanta Center
Tue 08:30:06 AM 33.7672 -85.9256 357° North 251 289 25,700 250 Climbing Atlanta Center
Tue 08:31:06 AM 33.8361 -85.9294 357° North 251 289 25,800 150 Climbing Atlanta Center
Tue 08:32:06 AM 33.9069 -85.9311 359° North 251 289 26,000 100 Climbing Atlanta Center
Tue 08:33:06 AM 33.9739 -85.9350 357° North 251 289 26,000  Level Atlanta Center
Tue 08:34:06 AM 34.0447 -85.9417 356° North 251 289 26,000  Level Atlanta Center
Tue 08:35:06 AM 34.1156 -85.9456 357° North 251 289 26,000  Level Atlanta Center
Tue 08:36:06 AM 34.1844 -85.9497 357° North 251 289 26,000  Level Atlanta Center
Tue 08:37:06 AM 34.2531 -85.9539 357° North 251 289 26,000  Level Atlanta Center
Tue 08:38:06 AM 34.3242 -85.9581 357° North 251 289 26,000  Level Atlanta Center
Tue 08:39:06 AM 34.3886 -85.9594 359° North 251 289 26,000  Level Atlanta Center
Tue 08:40:06 AM 34.4597 -85.9636 357° North 251 289 26,000  Level Atlanta Center
Tue 08:41:06 AM 34.5283 -85.9675 357° North 251 289 26,000  Level Atlanta Center
Tue 08:42:06 AM 34.5994 -85.9717 357° North 251 289 26,000  Level Atlanta Center
Tue 08:43:06 AM 34.6722 -85.9758 357° North 251 289 26,000  Level Atlanta Center
Tue 08:44:06 AM 34.7453 -85.9803 357° North 251 289 26,000  Level Atlanta Center
Tue 08:45:06 AM 34.8142 -85.9817 359° North 251 289 26,000  Level Atlanta Center
Tue 08:46:06 AM 34.8869 -85.9886 356° North 251 289 26,000  Level Atlanta Center
Tue 08:47:06 AM 34.9664 -85.9928 358° North 251 289 26,000  Level Atlanta Center
Tue 08:48:06 AM 35.0392 -85.9997 356° North 256 295 26,000  Level Atlanta Center
Tue 08:49:06 AM 35.1100 -86.0064 356° North 256 295 26,000  Level Atlanta Center
Tue 08:50:06 AM 35.1831 -86.0083 359° North 256 295 26,000  Level Atlanta Center
Tue 08:51:06 AM 35.2581 -86.0150 356° North 261 300 26,000  Level Atlanta Center
Tue 08:52:43 AM 35.3778 -86.0181 359° North 265 305 26,000  Level Memphis Center
Tue 08:53:43 AM 35.4531 -86.0242 356° North 270 311 26,000  Level Memphis Center
Tue 08:54:43 AM 35.5261 -86.0256 359° North 275 316 26,000  Level Memphis Center
Tue 08:55:43 AM 35.6014 -86.0292 358° North 275 316 26,000  Level Memphis Center
Tue 08:56:43 AM 35.6703 -86.0358 356° North 275 316 26,000  Level Memphis Center
Tue 08:57:43 AM 35.7436 -86.0397 358° North 275 316 26,000  Level Memphis Center
Tue 08:58:43 AM 35.8167 -86.0436 358° North 275 316 26,000  Level Memphis Center
Tue 08:59:43 AM 35.8981 -86.0494 357° North 269 310 26,000  Level Memphis Center
Tue 09:00:43 AM 35.9756 -86.0556 356° North 269 310 26,000  Level Memphis Center
Tue 09:01:43 AM 36.0508 -86.0594 358° North 274 315 26,000 -50 Level Memphis Center
Tue 09:02:43 AM 36.1258 -86.0631 358° North 274 315 25,900  Descending Memphis Center
Tue 09:03:43 AM 36.2033 -86.0694 356° North 274 315 26,000 50 Climbing Memphis Center
Tue 09:04:43 AM 36.2783 -86.0731 358° North 274 315 26,000  Level Memphis Center
Tue 09:05:43 AM 36.3536 -86.0769 358° North 274 315 26,000  Level Memphis Center
Tue 09:06:43 AM 36.4289 -86.0806 358° North 274 315 26,000  Level Memphis Center
Tue 09:07:43 AM 36.5039 -86.0844 358° North 274 315 26,000  Level Memphis Center
Tue 09:08:43 AM 36.5769 -86.0883 358° North 274 315 26,000  Level Memphis Center
Tue 09:09:43 AM 36.6522 -86.0919 358° North 274 315 26,000  Level Memphis Center
Tue 09:10:43 AM 36.7233 -86.0986 356° North 267 307 26,000  Level Memphis Center
Tue 09:11:43 AM 36.7964 -86.1053 356° North 262 302 26,000  Level Memphis Center
Tue 09:12:43 AM 36.8611 -86.1094 357° North 262 302 26,000  Level Memphis Center
Tue 09:14:13 AM 36.9678 -86.1156 357° North 260 299 26,000  Level Indianapolis Center
Tue 09:15:15 AM 37.0419 -86.1206 357° North 264 304 26,000  Level Indianapolis Center
Tue 09:16:17 AM 37.1264 -86.1236 358° North 260 299 26,000  Level Indianapolis Center
Tue 09:17:19 AM 37.1986 -86.1283 357° North 257 296 26,000  Level Indianapolis Center
Tue 09:18:21 AM 37.2703 -86.1436 350° North 259 298 26,000  Level Indianapolis Center
Tue 09:19:23 AM 37.3408 -86.1650 346° North 259 298 26,000  Level Indianapolis Center
Tue 09:20:25 AM 37.4117 -86.1811 350° North 259 298 26,000  Level Indianapolis Center
Tue 09:21:27 AM 37.4825 -86.1969 350° North 257 296 26,000  Level Indianapolis Center
Tue 09:22:29 AM 37.5544 -86.2164 348° North 261 300 26,000  Level Indianapolis Center
Tue 09:23:31 AM 37.6386 -86.2347 350° North 262 302 26,000  Level Indianapolis Center
Tue 09:24:33 AM 37.7108 -86.2525 349° North 261 300 26,000  Level Indianapolis Center
Tue 09:25:35 AM 37.7817 -86.2692 349° North 260 299 26,000  Level Indianapolis Center
Tue 09:26:37 AM 37.8600 -86.2875 350° North 267 307 26,000 -48 Level Indianapolis Center
Tue 09:27:39 AM 37.9325 -86.3042 350° North 264 304 25,900 -290 Descending Indianapolis Center
Tue 09:28:41 AM 38.0069 -86.3222 349° North 272 313 25,400 -629 Descending Indianapolis Center
Tue 09:29:43 AM 38.0853 -86.3383 351° North 285 328 24,600 -768 Descending Indianapolis Center
Tue 09:30:46 AM 38.1642 -86.3603 348° North 289 333 23,800 -720 Descending Indianapolis Center
Tue 09:31:48 AM 38.2431 -86.3797 349° North 288 331 23,100 -968 Descending Indianapolis Center
Tue 09:32:50 AM 38.3389 -86.4042 349° North 291 335 21,800 -1,258 Descending Indianapolis Center
Tue 09:33:52 AM 38.4219 -86.4247 349° North 301 346 20,500 -1,161 Descending Indianapolis Center
Tue 09:34:54 AM 38.5039 -86.4433 350° North 299 344 19,400 -1,306 Descending Indianapolis Center
Tue 09:35:56 AM 38.5878 -86.4639 349° North 305 351 17,800 -1,355 Descending Indianapolis Center
Tue 09:36:58 AM 38.6725 -86.4853 349° North 309 356 16,600 -1,258 Descending Indianapolis Center
Tue 09:38:00 AM 38.7536 -86.5058 349° North 300 345 15,200 -1,403 Descending Indianapolis Center
Tue 09:39:02 AM 38.8514 -86.5317 348° North 298 343 13,700 -1,645 Descending Indianapolis Center
Tue 09:40:04 AM 38.9206 -86.5494 349° North 300 345 11,800 -1,258 Descending Indianapolis Center
Tue 09:41:06 AM 39.0189 -86.5714 350° North 297 342 11,100 -387 Descending Indianapolis Center
Tue 09:42:08 AM 39.0925 -86.5694 North 273 314 11,000 -339 Descending Indianapolis Center
Tue 09:43:10 AM 39.1661 -86.5678 North 265 305 10,400 -968 Descending Indianapolis Center
Tue 09:44:12 AM 39.2469 -86.5653 North 283 326 9,000 -1,161 Descending Indianapolis Center
Tue 09:45:14 AM 39.3303 -86.5658 360° North 294 338 8,000 -968 Descending Indianapolis Center
Tue 09:46:16 AM 39.4103 -86.5644 North 289 333 7,000 -1,355 Descending Indianapolis Center
Tue 09:47:18 AM 39.5078 -86.5614 North 289 333 5,200 -1,403 Descending Indianapolis Center
Tue 09:48:20 AM 39.5883 -86.5539 North 292 336 4,100 -532 Descending Indianapolis Center
Tue 09:49:22 AM 39.6556 -86.5019 31° Northeast 279 321 4,100  Level Indianapolis Center
Tue 09:50:24 AM 39.7203 -86.4553 29° Northeast 272 313 4,100 -387 Level Indianapolis Center
Tue 09:51:26 AM 39.7783 -86.3944 39° Northeast 269 310 3,300 -581 Descending Indianapolis Center
Tue 09:52:28 AM 39.8250 -86.3306 46° Northeast 246 283 2,900 -384 Descending Indianapolis Center
Tue 09:53:31 AM 39.8853 -86.2933 25° Northeast 229 264 2,500 -381 Descending Indianapolis Center

Login

Don't have an account? Register now (free) for customized features, flight alerts, and more!